Time,TemperatureF,DewpointF,PressureIn,WindDirection,WindDirectionDegrees,WindSpeedMPH,WindSpeedGustMPH,Humidity,HourlyPrecipIn,Conditions,Clouds,dailyrainin,SoftwareType,DateUTC
2013-12-05 00:00:00,56.2,56.2,30.06,WSW,254,0.0,1.0,100,0.00,,,0.00,VWS V15.00,2013-12-05 05:00:00,
2013-12-05 00:10:00,56.3,56.3,30.06,SW,218,0.0,2.0,100,0.00,,,0.00,VWS V15.00,2013-12-05 05:10:00,
2013-12-05 00:20:00,56.6,56.6,30.07,WSW,245,0.0,4.0,100,0.00,,,0.00,VWS V15.00,2013-12-05 05:20:00,
2013-12-05 00:30:00,56.6,56.6,30.07,WSW,245,0.0,1.0,100,0.00,,,0.00,VWS V15.00,2013-12-05 05:30:00,
2013-12-05 00:40:00,56.6,56.6,30.07,WSW,245,0.0,1.0,100,0.00,,,0.00,VWS V15.00,2013-12-05 05:40:00,
2013-12-05 00:50:00,56.9,56.9,30.07,West,260,0.0,1.0,100,0.00,,,0.00,VWS V15.00,2013-12-05 05:50:00,
2013-12-05 01:00:00,56.7,56.4,30.06,West,260,0.0,2.0,99,0.00,,,0.00,VWS V15.00,2013-12-05 06:00:00,
2013-12-05 01:10:00,56.6,56.3,30.06,West,260,0.0,1.0,99,0.00,,,0.00,VWS V15.00,2013-12-05 06:10:00,
2013-12-05 01:20:00,56.5,55.9,30.06,West,260,0.0,1.0,98,0.00,,,0.00,VWS V15.00,2013-12-05 06:20:00,
2013-12-05 01:30:00,56.2,55.7,30.06,West,260,0.0,0.0,98,0.00,,,0.00,VWS V15.00,2013-12-05 06:30:00,
2013-12-05 01:40:00,56.0,55.5,30.06,West,260,0.0,0.0,98,0.00,,,0.00,VWS V15.00,2013-12-05 06:40:00,
2013-12-05 01:50:00,55.9,55.3,30.06,West,260,0.0,0.0,98,0.00,,,0.00,VWS V15.00,2013-12-05 06:50:00,
2013-12-05 02:00:00,55.7,55.4,30.06,West,260,0.0,0.0,99,0.00,,,0.00,VWS V15.00,2013-12-05 07:00:00,
2013-12-05 02:10:00,55.4,55.1,30.06,West,260,0.0,0.0,99,0.00,,,0.00,VWS V15.00,2013-12-05 07:10:00,
2013-12-05 02:40:00,55.0,54.7,30.06,West,260,0.0,0.0,99,0.00,,,0.00,VWS V15.00,2013-12-05 07:40:00,
2013-12-05 02:50:00,54.7,54.4,30.06,West,260,0.0,0.0,99,0.00,,,0.00,VWS V15.00,2013-12-05 07:50:00,
2013-12-05 03:00:00,54.7,54.7,30.06,West,260,0.0,0.0,100,0.00,,,0.00,VWS V15.00,2013-12-05 08:00:00,
2013-12-05 03:10:00,55.0,55.0,30.06,West,260,0.0,3.0,100,0.00,,,0.00,VWS V15.00,2013-12-05 08:10:00,
2013-12-05 03:20:00,55.1,55.1,30.05,West,260,0.0,1.0,100,0.00,,,0.00,VWS V15.00,2013-12-05 08:20:00,
2013-12-05 03:30:00,55.6,55.6,30.05,West,259,0.0,2.0,100,0.00,,,0.00,VWS V15.00,2013-12-05 08:30:00,
2013-12-05 03:40:00,55.7,55.7,30.05,West,262,0.0,2.0,100,0.00,,,0.00,VWS V15.00,2013-12-05 08:40:00,
2013-12-05 03:50:00,55.9,55.9,30.06,WNW,293,0.0,2.0,100,0.00,,,0.00,VWS V15.00,2013-12-05 08:50:00,
2013-12-05 04:00:00,55.9,55.9,30.06,WNW,291,0.0,1.0,100,0.00,,,0.00,VWS V15.00,2013-12-05 09:00:00,
2013-12-05 04:10:00,56.0,56.0,30.06,WNW,291,0.0,1.0,100,0.00,,,0.00,VWS V15.00,2013-12-05 09:10:00,
2013-12-05 04:20:00,56.0,56.0,30.06,WNW,285,0.0,2.0,100,0.00,,,0.00,VWS V15.00,2013-12-05 09:20:00,
2013-12-05 04:30:00,56.2,56.2,30.06,WNW,285,0.0,1.0,100,0.00,,,0.00,VWS V15.00,2013-12-05 09:30:00,
2013-12-05 04:40:00,56.2,56.2,30.06,WNW,285,0.0,0.0,100,0.00,,,0.00,VWS V15.00,2013-12-05 09:40:00,
2013-12-05 04:50:00,56.3,56.3,30.06,WNW,285,0.0,2.0,100,0.00,,,0.00,VWS V15.00,2013-12-05 09:50:00,
2013-12-05 05:01:00,56.3,56.3,30.06,WNW,285,0.0,0.0,100,0.00,,,0.00,VWS V15.00,2013-12-05 10:01:00,
2013-12-05 05:10:00,56.5,56.5,30.06,SSW,211,0.0,3.0,100,0.00,,,0.00,VWS V15.00,2013-12-05 10:10:00,
2013-12-05 05:20:00,56.5,56.5,30.06,SSW,211,0.0,1.0,100,0.00,,,0.00,VWS V15.00,2013-12-05 10:20:00,
2013-12-05 05:30:00,56.6,56.6,30.06,SSW,211,0.0,0.0,100,0.00,,,0.00,VWS V15.00,2013-12-05 10:30:00,
2013-12-05 05:40:00,56.7,56.7,30.06,SSW,211,0.0,0.0,100,0.00,,,0.00,VWS V15.00,2013-12-05 10:40:00,
2013-12-05 05:50:00,56.9,56.9,30.06,WNW,284,0.0,3.0,100,0.00,,,0.00,VWS V15.00,2013-12-05 10:50:00,
2013-12-05 06:00:00,56.9,56.9,30.06,WNW,284,0.0,0.0,100,0.00,,,0.00,VWS V15.00,2013-12-05 11:00:00,
2013-12-05 06:10:00,56.9,56.9,30.06,WNW,284,0.0,0.0,100,0.00,,,0.00,VWS V15.00,2013-12-05 11:10:00,
2013-12-05 06:20:00,56.9,56.9,30.07,WNW,284,0.0,2.0,100,0.00,,,0.00,VWS V15.00,2013-12-05 11:20:00,
2013-12-05 06:30:00,56.7,56.7,30.07,WNW,284,0.0,0.0,100,0.00,,,0.00,VWS V15.00,2013-12-05 11:30:00,
2013-12-05 06:40:00,56.7,56.7,30.07,WNW,284,0.0,0.0,100,0.00,,,0.00,VWS V15.00,2013-12-05 11:40:00,
2013-12-05 06:50:00,56.7,56.7,30.07,WNW,284,0.0,2.0,100,0.00,,,0.00,VWS V15.00,2013-12-05 11:50:00,
2013-12-05 07:00:00,56.7,56.7,30.08,WNW,284,0.0,2.0,100,0.00,,,0.00,VWS V15.00,2013-12-05 12:00:00,
2013-12-05 07:10:00,56.7,56.7,30.08,WNW,284,0.0,2.0,100,0.00,,,0.00,VWS V15.00,2013-12-05 12:10:00,
2013-12-05 07:20:00,56.7,56.7,30.08,WNW,284,0.0,0.0,100,0.00,,,0.00,VWS V15.00,2013-12-05 12:20:00,
2013-12-05 07:30:00,56.7,56.7,30.08,WNW,284,0.0,0.0,100,0.00,,,0.00,VWS V15.00,2013-12-05 12:30:00,
2013-12-05 07:40:00,56.7,56.7,30.08,WNW,284,0.0,0.0,100,0.00,,,0.00,VWS V15.00,2013-12-05 12:40:00,
2013-12-05 07:50:00,56.7,56.7,30.08,WNW,284,0.0,0.0,100,0.00,,,0.00,VWS V15.00,2013-12-05 12:50:00,
2013-12-05 08:00:00,56.9,56.9,30.09,WNW,284,0.0,0.0,100,0.00,,,0.00,VWS V15.00,2013-12-05 13:00:00,
2013-12-05 08:10:00,56.9,56.9,30.09,WNW,284,0.0,0.0,100,0.00,,,0.00,VWS V15.00,2013-12-05 13:10:00,
2013-12-05 08:20:00,56.9,56.9,30.09,WNW,284,0.0,0.0,100,0.00,,,0.00,VWS V15.00,2013-12-05 13:20:00,
2013-12-05 08:30:00,57.0,57.0,30.10,WNW,284,0.0,0.0,100,0.00,,,0.00,VWS V15.00,2013-12-05 13:30:00,
2013-12-05 08:40:00,57.2,57.2,30.10,SSW,204,0.0,5.0,100,0.00,,,0.00,VWS V15.00,2013-12-05 13:40:00,
2013-12-05 08:50:00,57.3,57.3,30.11,SW,235,0.0,2.0,100,0.00,,,0.00,VWS V15.00,2013-12-05 13:50:00,
2013-12-05 09:00:00,57.5,57.5,30.11,SW,235,0.0,2.0,100,0.00,,,0.00,VWS V15.00,2013-12-05 14:00:00,
2013-12-05 09:10:00,57.6,57.6,30.11,SW,233,0.0,0.0,100,0.00,,,0.00,VWS V15.00,2013-12-05 14:10:00,
2013-12-05 09:20:00,57.8,57.8,30.11,SW,233,0.0,0.0,100,0.00,,,0.00,VWS V15.00,2013-12-05 14:20:00,
2013-12-05 09:30:00,58.1,58.1,30.11,SW,233,1.0,1.0,100,0.00,,,0.00,VWS V15.00,2013-12-05 14:30:00,
2013-12-05 09:40:00,58.4,58.4,30.11,SW,233,1.0,2.0,100,0.00,,,0.00,VWS V15.00,2013-12-05 14:40:00,
2013-12-05 09:50:00,58.7,58.7,30.12,SW,233,0.0,2.0,100,0.00,,,0.00,VWS V15.00,2013-12-05 14:50:00,
2013-12-05 10:00:00,58.9,58.9,30.12,SW,233,0.0,1.0,100,0.01,,,0.01,VWS V15.00,2013-12-05 15:00:00,
2013-12-05 10:10:00,59.2,59.2,30.12,SW,233,0.0,1.0,100,0.01,,,0.01,VWS V15.00,2013-12-05 15:10:00,
2013-12-05 10:20:00,59.6,59.6,30.11,SW,233,0.0,0.0,100,0.01,,,0.01,VWS V15.00,2013-12-05 15:20:00,
2013-12-05 10:30:00,60.1,60.1,30.10,SW,233,0.0,2.0,100,0.01,,,0.01,VWS V15.00,2013-12-05 15:30:00,
2013-12-05 10:40:00,60.9,60.9,30.10,SSW,198,0.0,2.0,100,0.01,,,0.01,VWS V15.00,2013-12-05 15:40:00,
2013-12-05 10:50:00,61.3,61.3,30.09,NE,46,0.0,2.0,100,0.01,,,0.01,VWS V15.00,2013-12-05 15:50:00,
2013-12-05 11:00:00,61.5,61.5,30.09,WSW,240,1.0,4.0,100,0.01,,,0.01,VWS V15.00,2013-12-05 16:00:00,
2013-12-05 11:10:00,61.6,61.6,30.09,West,259,0.0,4.0,100,0.00,,,0.01,VWS V15.00,2013-12-05 16:10:00,
2013-12-05 11:20:00,62.0,62.0,30.09,SW,225,0.0,5.0,100,0.00,,,0.01,VWS V15.00,2013-12-05 16:20:00,
2013-12-05 11:30:00,62.1,62.1,30.08,South,182,1.0,6.0,100,0.00,,,0.01,VWS V15.00,2013-12-05 16:30:00,
2013-12-05 11:40:00,62.4,62.4,30.08,NNE,26,0.0,3.0,100,0.01,,,0.02,VWS V15.00,2013-12-05 16:40:00,
2013-12-05 11:50:00,62.6,62.6,30.07,SW,221,0.0,4.0,100,0.01,,,0.02,VWS V15.00,2013-12-05 16:50:00,
2013-12-05 12:00:00,62.9,62.9,30.06,WNW,285,1.0,1.0,100,0.01,,,0.02,VWS V15.00,2013-12-05 17:00:00,
2013-12-05 12:10:00,62.9,62.9,30.06,SW,225,0.0,3.0,100,0.01,,,0.02,VWS V15.00,2013-12-05 17:10:00,
2013-12-05 12:20:00,62.7,62.7,30.06,West,266,2.0,4.0,100,0.01,,,0.02,VWS V15.00,2013-12-05 17:20:00,
2013-12-05 12:30:00,62.7,62.7,30.06,West,262,0.0,4.0,100,0.01,,,0.02,VWS V15.00,2013-12-05 17:30:00,
2013-12-05 12:40:00,62.9,62.9,30.06,WSW,247,0.0,4.0,100,0.01,,,0.02,VWS V15.00,2013-12-05 17:40:00,
2013-12-05 12:50:00,63.1,63.1,30.05,WSW,245,0.0,3.0,100,0.00,,,0.02,VWS V15.00,2013-12-05 17:50:00,
2013-12-05 13:00:00,63.4,63.4,30.04,WSW,245,0.0,1.0,100,0.00,,,0.02,VWS V15.00,2013-12-05 18:00:00,
2013-12-05 13:10:00,63.9,63.9,30.04,WSW,238,1.0,2.0,100,0.00,,,0.02,VWS V15.00,2013-12-05 18:10:00,
2013-12-05 13:20:00,64.0,64.0,30.03,WSW,243,0.0,4.0,100,0.00,,,0.02,VWS V15.00,2013-12-05 18:20:00,
2013-12-05 13:30:00,64.5,64.5,30.03,West,263,0.0,3.0,100,0.00,,,0.02,VWS V15.00,2013-12-05 18:30:00,
2013-12-05 13:40:00,64.8,64.8,30.03,WSW,238,5.0,5.0,100,0.00,,,0.02,VWS V15.00,2013-12-05 18:40:00,
2013-12-05 13:50:00,64.8,64.5,30.03,SSW,211,0.0,7.0,99,0.00,,,0.02,VWS V15.00,2013-12-05 18:50:00,
2013-12-05 14:00:00,65.0,64.4,30.02,WSW,255,2.0,5.0,98,0.00,,,0.02,VWS V15.00,2013-12-05 19:00:00,
2013-12-05 14:10:00,65.2,64.0,30.02,SSW,195,1.0,6.0,96,0.00,,,0.02,VWS V15.00,2013-12-05 19:10:00,
2013-12-05 14:20:00,65.2,63.4,30.03,SW,219,0.0,10.0,94,0.00,,,0.02,VWS V15.00,2013-12-05 19:20:00,
2013-12-05 14:30:00,65.2,63.4,30.03,WNW,287,1.0,6.0,94,0.00,,,0.02,VWS V15.00,2013-12-05 19:30:00,
2013-12-05 14:40:00,65.0,62.9,30.03,WSW,237,0.0,9.0,93,0.01,,,0.03,VWS V15.00,2013-12-05 19:40:00,
2013-12-05 14:50:00,65.0,62.9,30.03,West,259,0.0,4.0,93,0.01,,,0.03,VWS V15.00,2013-12-05 19:50:00,
2013-12-05 15:00:00,64.8,62.7,30.03,SW,227,1.0,5.0,93,0.01,,,0.03,VWS V15.00,2013-12-05 20:00:00,
2013-12-05 15:10:00,64.8,62.7,30.03,WSW,242,0.0,4.0,93,0.01,,,0.03,VWS V15.00,2013-12-05 20:10:00,
2013-12-05 15:20:00,64.8,63.0,30.03,SW,217,0.0,4.0,94,0.01,,,0.03,VWS V15.00,2013-12-05 20:20:00,
2013-12-05 15:30:00,64.7,62.9,30.03,WSW,239,0.0,3.0,94,0.01,,,0.03,VWS V15.00,2013-12-05 20:30:00,
2013-12-05 15:40:00,64.8,63.3,30.03,WSW,240,0.0,3.0,95,0.01,,,0.03,VWS V15.00,2013-12-05 20:40:00,
2013-12-05 15:50:00,64.8,63.0,30.03,WSW,240,0.0,1.0,94,0.00,,,0.03,VWS V15.00,2013-12-05 20:50:00,
2013-12-05 16:00:00,64.8,63.0,30.03,WSW,240,0.0,2.0,94,0.00,,,0.03,VWS V15.00,2013-12-05 21:00:00,
2013-12-05 16:10:00,64.8,63.0,30.03,WSW,240,0.0,1.0,94,0.00,,,0.03,VWS V15.00,2013-12-05 21:10:00,
2013-12-05 16:20:00,64.8,63.0,30.03,SW,230,0.0,2.0,94,0.00,,,0.03,VWS V15.00,2013-12-05 21:20:00,
2013-12-05 16:30:00,64.8,62.7,30.04,SW,230,0.0,1.0,93,0.00,,,0.03,VWS V15.00,2013-12-05 21:30:00,
2013-12-05 16:40:00,64.7,62.6,30.04,SW,230,0.0,0.0,93,0.00,,,0.03,VWS V15.00,2013-12-05 21:40:00,
2013-12-05 16:50:00,64.5,62.7,30.04,SW,230,0.0,0.0,94,0.00,,,0.03,VWS V15.00,2013-12-05 21:50:00,
2013-12-05 17:00:00,64.3,62.8,30.03,SW,230,0.0,0.0,95,0.00,,,0.03,VWS V15.00,2013-12-05 22:00:00,
2013-12-05 17:10:00,64.2,62.7,30.03,SW,230,0.0,0.0,95,0.00,,,0.03,VWS V15.00,2013-12-05 22:10:00,
2013-12-05 17:20:00,63.9,62.4,30.04,SW,230,0.0,0.0,95,0.00,,,0.03,VWS V15.00,2013-12-05 22:20:00,
2013-12-05 17:30:00,63.5,62.3,30.04,SW,230,0.0,0.0,96,0.00,,,0.03,VWS V15.00,2013-12-05 22:30:00,
2013-12-05 17:40:00,63.5,62.3,30.04,SW,230,0.0,0.0,96,0.00,,,0.03,VWS V15.00,2013-12-05 22:40:00,
2013-12-05 17:50:00,63.4,62.2,30.04,SW,230,0.0,0.0,96,0.00,,,0.03,VWS V15.00,2013-12-05 22:50:00,
2013-12-05 18:00:00,63.2,62.3,30.04,SW,230,0.0,0.0,97,0.00,,,0.03,VWS V15.00,2013-12-05 23:00:00,
2013-12-05 18:10:00,63.2,62.3,30.04,SW,230,0.0,0.0,97,0.00,,,0.03,VWS V15.00,2013-12-05 23:10:00,
2013-12-05 18:20:00,63.1,62.2,30.05,SW,230,0.0,0.0,97,0.00,,,0.03,VWS V15.00,2013-12-05 23:20:00,
2013-12-05 18:30:00,63.1,62.5,30.05,SW,230,0.0,0.0,98,0.00,,,0.03,VWS V15.00,2013-12-05 23:30:00,
2013-12-05 18:40:00,62.7,62.1,30.05,SW,230,0.0,0.0,98,0.00,,,0.03,VWS V15.00,2013-12-05 23:40:00,
2013-12-05 18:50:00,62.7,62.4,30.05,SW,230,0.0,0.0,99,0.00,,,0.03,VWS V15.00,2013-12-05 23:50:00,
2013-12-05 19:00:00,62.6,62.3,30.05,SW,230,0.0,0.0,99,0.00,,,0.03,VWS V15.00,2013-12-06 00:00:00,
2013-12-05 19:05:00,62.4,62.1,30.05,SW,230,0.0,0.0,99,0.00,,,0.03,VWS V15.00,2013-12-06 00:05:00,
2013-12-05 19:11:00,62.4,62.4,30.05,SW,230,0.0,0.0,100,0.00,,,0.03,VWS V15.00,2013-12-06 00:11:00,
2013-12-05 19:17:00,62.4,62.4,30.04,SW,230,0.0,1.0,100,0.00,,,0.03,VWS V15.00,2013-12-06 00:17:00,
2013-12-05 19:23:00,62.4,62.4,30.04,SW,230,0.0,0.0,100,0.00,,,0.03,VWS V15.00,2013-12-06 00:23:00,
2013-12-05 19:29:00,62.4,62.4,30.04,SW,230,0.0,0.0,100,0.00,,,0.03,VWS V15.00,2013-12-06 00:29:00,
2013-12-05 19:35:00,62.4,62.4,30.04,SW,230,0.0,1.0,100,0.00,,,0.03,VWS V15.00,2013-12-06 00:35:00,
2013-12-05 19:41:00,62.4,62.4,30.04,SW,230,0.0,0.0,100,0.00,,,0.03,VWS V15.00,2013-12-06 00:41:00,
2013-12-05 19:47:00,62.3,62.3,30.03,SW,230,0.0,1.0,100,0.00,,,0.03,VWS V15.00,2013-12-06 00:47:00,
2013-12-05 19:53:00,62.1,62.1,30.03,SW,230,0.0,0.0,100,0.00,,,0.03,VWS V15.00,2013-12-06 00:53:00,
2013-12-05 19:59:00,62.1,62.1,30.04,SW,230,0.0,1.0,100,0.00,,,0.03,VWS V15.00,2013-12-06 00:59:00,
2013-12-05 20:05:00,62.1,62.1,30.04,SW,230,0.0,1.0,100,0.00,,,0.03,VWS V15.00,2013-12-06 01:05:00,
2013-12-05 20:11:00,62.1,62.1,30.04,SW,230,0.0,0.0,100,0.00,,,0.03,VWS V15.00,2013-12-06 01:11:00,
2013-12-05 20:17:00,62.0,62.0,30.04,SW,230,0.0,0.0,100,0.00,,,0.03,VWS V15.00,2013-12-06 01:17:00,
2013-12-05 20:24:00,62.0,62.0,30.04,SW,230,0.0,0.0,100,0.00,,,0.03,VWS V15.00,2013-12-06 01:24:00,
2013-12-05 20:30:00,62.0,62.0,30.03,SW,230,0.0,0.0,100,0.00,,,0.03,VWS V15.00,2013-12-06 01:30:00,
2013-12-05 20:36:00,61.8,61.8,30.03,SW,230,0.0,0.0,100,0.00,,,0.03,VWS V15.00,2013-12-06 01:36:00,
2013-12-05 20:42:00,61.6,61.6,30.03,SW,230,0.0,0.0,100,0.00,,,0.03,VWS V15.00,2013-12-06 01:42:00,
2013-12-05 20:48:00,61.8,61.8,30.03,South,174,0.0,1.0,100,0.00,,,0.03,VWS V15.00,2013-12-06 01:48:00,
2013-12-05 20:54:00,61.8,61.8,30.03,South,174,0.0,0.0,100,0.00,,,0.03,VWS V15.00,2013-12-06 01:54:00,
2013-12-05 21:00:00,62.0,62.0,30.04,South,174,0.0,0.0,100,0.00,,,0.03,VWS V15.00,2013-12-06 02:00:00,
2013-12-05 21:06:00,62.1,62.1,30.04,South,174,0.0,0.0,100,0.00,,,0.03,VWS V15.00,2013-12-06 02:06:00,
2013-12-05 21:12:00,62.1,62.1,30.04,South,174,0.0,0.0,100,0.00,,,0.03,VWS V15.00,2013-12-06 02:12:00,
2013-12-05 21:18:00,62.4,62.4,30.03,SSW,192,0.0,0.0,100,0.00,,,0.03,VWS V15.00,2013-12-06 02:18:00,
2013-12-05 21:24:00,62.6,62.6,30.03,West,259,0.0,2.0,100,0.00,,,0.03,VWS V15.00,2013-12-06 02:24:00,
2013-12-05 21:30:00,62.9,62.9,30.02,WSW,256,0.0,5.0,100,0.00,,,0.03,VWS V15.00,2013-12-06 02:30:00,
2013-12-05 21:36:00,63.1,63.1,30.02,WSW,256,0.0,1.0,100,0.00,,,0.03,VWS V15.00,2013-12-06 02:36:00,
2013-12-05 21:42:00,63.1,63.1,30.02,WSW,255,0.0,3.0,100,0.00,,,0.03,VWS V15.00,2013-12-06 02:42:00,
2013-12-05 21:48:00,63.2,63.2,30.04,SW,235,0.0,3.0,100,0.00,,,0.03,VWS V15.00,2013-12-06 02:48:00,
2013-12-05 21:54:00,63.5,63.5,30.04,SW,219,0.0,2.0,100,0.00,,,0.03,VWS V15.00,2013-12-06 02:54:00,
2013-12-05 22:00:00,63.9,63.9,30.03,WSW,245,0.0,6.0,100,0.00,,,0.03,VWS V15.00,2013-12-06 03:00:00,
2013-12-05 22:06:00,64.2,64.2,30.03,SSW,200,2.0,10.0,100,0.00,,,0.03,VWS V15.00,2013-12-06 03:06:00,
2013-12-05 22:12:00,64.5,64.5,30.03,WNW,289,0.0,0.0,100,0.00,,,0.03,VWS V15.00,2013-12-06 03:12:00,
2013-12-05 22:18:00,64.5,64.5,30.03,SW,224,3.0,5.0,100,0.00,,,0.03,VWS V15.00,2013-12-06 03:18:00,
2013-12-05 22:24:00,64.5,64.2,30.03,SW,224,0.0,0.0,99,0.00,,,0.03,VWS V15.00,2013-12-06 03:24:00,
2013-12-05 22:30:00,64.3,63.7,30.02,SW,224,0.0,1.0,98,0.00,,,0.03,VWS V15.00,2013-12-06 03:30:00,
2013-12-05 22:36:00,64.2,63.9,30.02,SW,227,0.0,3.0,99,0.00,,,0.03,VWS V15.00,2013-12-06 03:36:00,
2013-12-05 22:42:00,64.2,63.9,30.02,WSW,252,0.0,1.0,99,0.00,,,0.03,VWS V15.00,2013-12-06 03:42:00,
2013-12-05 22:48:00,64.2,63.9,30.02,WSW,252,1.0,1.0,99,0.00,,,0.03,VWS V15.00,2013-12-06 03:48:00,
2013-12-05 22:54:00,64.2,63.9,30.02,WSW,252,0.0,0.0,99,0.00,,,0.03,VWS V15.00,2013-12-06 03:54:00,
2013-12-05 23:00:00,64.0,63.7,30.02,WSW,252,0.0,0.0,99,0.00,,,0.03,VWS V15.00,2013-12-06 04:00:00,
2013-12-05 23:06:00,64.0,63.7,30.02,WSW,252,0.0,1.0,99,0.00,,,0.03,VWS V15.00,2013-12-06 04:06:00,
2013-12-05 23:12:00,64.2,63.9,30.02,SW,227,2.0,3.0,99,0.00,,,0.03,VWS V15.00,2013-12-06 04:12:00,
2013-12-05 23:18:00,64.2,63.9,30.02,SW,216,1.0,3.0,99,0.00,,,0.03,VWS V15.00,2013-12-06 04:18:00,
2013-12-05 23:24:00,64.2,63.9,30.02,SW,214,1.0,1.0,99,0.00,,,0.03,VWS V15.00,2013-12-06 04:24:00,
2013-12-05 23:30:00,64.2,63.9,30.02,SE,143,0.0,3.0,99,0.00,,,0.03,VWS V15.00,2013-12-06 04:30:00,
2013-12-05 23:36:00,64.2,63.9,30.02,WSW,237,3.0,4.0,99,0.00,,,0.03,VWS V15.00,2013-12-06 04:36:00,
2013-12-05 23:42:00,64.2,63.9,30.02,WSW,238,0.0,1.0,99,0.00,,,0.03,VWS V15.00,2013-12-06 04:42:00,
2013-12-05 23:48:00,64.2,63.9,30.02,WSW,241,0.0,3.0,99,0.00,,,0.03,VWS V15.00,2013-12-06 04:48:00,
2013-12-05 23:54:00,64.2,63.9,30.02,WSW,243,0.0,0.0,99,0.00,,,0.03,VWS V15.00,2013-12-06 04:54:00,